Time;durP1;ratioP1;P1;durP2;ratioP2;P2;SDS_P1;SDS_P2;PMS_P1;PMS_P2;Temp;Humidity;BMP_temperature;BMP_pressure;BME280_temperature;BME280_humidity;BME280_pressure;Samples;Min_cycle;Max_cycle;Signal;HPM_P1;HPM_P2
2022/12/04 00:01:13;;;;;;;14.73;9.17;;;;;;;6.56;63.41;100498.69;5143045;27;20364;-60
2022/12/04 00:03:42;;;;;;;14.33;8.80;;;;;;;6.57;63.25;100492.47;5143709;27;20209;-60
2022/12/04 00:06:11;;;;;;;14.20;9.00;;;;;;;6.58;63.91;100499.44;5142047;27;20202;-60
2022/12/04 00:08:39;;;;;;;15.00;9.53;;;;;;;6.57;63.57;100489.84;5139117;27;20317;-60
2022/12/04 00:11:09;;;;;;;16.53;8.63;;;;;;;6.61;63.73;100501.81;5141054;27;20221;-60
2022/12/04 00:13:39;;;;;;;15.90;9.33;;;;;;;6.73;63.62;100496.41;5148152;27;20270;-60
2022/12/04 00:16:09;;;;;;;15.03;8.53;;;;;;;6.70;63.48;100491.38;5151618;27;20226;-61
2022/12/04 00:18:37;;;;;;;12.70;7.90;;;;;;;6.82;63.63;100494.81;5148519;27;20270;-60
2022/12/04 00:21:06;;;;;;;13.60;8.30;;;;;;;6.84;63.18;100492.06;5149196;27;20202;-61
2022/12/04 00:23:35;;;;;;;15.90;9.50;;;;;;;6.75;63.53;100488.38;5143653;27;20224;-61
2022/12/04 00:26:05;;;;;;;18.13;9.83;;;;;;;6.64;63.77;100486.59;5150062;27;20210;-60
2022/12/04 00:28:34;;;;;;;14.47;9.60;;;;;;;6.60;64.09;100481.69;5143780;27;20244;-61
2022/12/04 00:31:05;;;;;;;15.93;9.37;;;;;;;6.66;63.90;100495.22;5141701;27;20202;-61
2022/12/04 00:33:34;;;;;;;18.83;9.37;;;;;;;6.53;64.19;100496.31;5138632;27;20596;-59
2022/12/04 00:36:05;;;;;;;14.63;8.93;;;;;;;6.54;64.49;100511.16;5136937;27;20233;-61
2022/12/04 00:38:33;;;;;;;14.53;8.90;;;;;;;6.54;64.74;100503.25;5135953;27;20195;-60
2022/12/04 00:41:01;;;;;;;18.60;9.20;;;;;;;6.49;64.82;100498.34;5142103;27;20216;-59
2022/12/04 00:43:30;;;;;;;15.70;8.47;;;;;;;6.43;65.32;100498.81;5137758;27;20220;-60
2022/12/04 00:45:58;;;;;;;17.83;8.63;;;;;;;6.45;65.43;100491.66;5140358;27;20962;-61
2022/12/04 00:48:27;;;;;;;17.53;9.03;;;;;;;6.46;65.07;100489.84;5137916;27;20299;-60
2022/12/04 00:50:57;;;;;;;15.07;8.87;;;;;;;6.54;64.97;100488.28;5143387;27;20219;-60
2022/12/04 00:53:24;;;;;;;13.67;8.63;;;;;;;6.58;64.89;100491.53;5140517;27;20205;-60
2022/12/04 00:55:52;;;;;;;16.80;9.13;;;;;;;6.65;64.54;100482.16;5136010;27;20230;-60
2022/12/04 00:58:20;;;;;;;16.30;9.43;;;;;;;6.67;64.44;100474.97;5137144;27;20209;-61
2022/12/04 01:00:48;;;;;;;16.43;9.17;;;;;;;6.65;64.01;100474.25;5138746;27;20657;-60
2022/12/04 01:03:15;;;;;;;16.23;9.13;;;;;;;6.61;63.51;100470.19;5141997;27;20206;-60
2022/12/04 01:05:45;;;;;;;15.60;9.23;;;;;;;6.60;63.63;100466.72;5138093;27;20194;-61
2022/12/04 01:08:13;;;;;;;15.00;9.03;;;;;;;6.62;63.59;100453.41;5134513;27;20582;-61
2022/12/04 01:10:42;;;;;;;17.67;10.33;;;;;;;6.64;63.60;100454.13;5134445;27;20229;-59
2022/12/04 01:13:10;;;;;;;21.63;11.87;;;;;;;6.61;63.65;100457.84;5141357;27;20206;-60
2022/12/04 01:15:39;;;;;;;19.63;11.53;;;;;;;6.59;64.07;100451.03;5149251;27;20611;-60
2022/12/04 01:18:07;;;;;;;17.23;10.07;;;;;;;6.62;63.94;100445.50;5151609;27;20230;-60
2022/12/04 01:20:35;;;;;;;15.60;9.00;;;;;;;6.67;63.92;100448.63;5139246;27;20224;-60
2022/12/04 01:23:04;;;;;;;16.33;8.37;;;;;;;6.61;63.79;100457.84;5143003;27;20218;-60
2022/12/04 01:25:32;;;;;;;15.77;9.30;;;;;;;6.67;63.74;100459.16;5137658;27;20228;-60
2022/12/04 01:28:00;;;;;;;15.63;8.63;;;;;;;6.67;63.32;100464.44;5136216;27;20237;-62
2022/12/04 01:30:28;;;;;;;13.97;8.23;;;;;;;6.63;63.51;100477.00;5144463;27;20290;-58
2022/12/04 01:32:56;;;;;;;15.53;9.40;;;;;;;6.62;63.31;100479.75;5146429;27;20216;-59
2022/12/04 01:35:24;;;;;;;14.27;8.60;;;;;;;6.52;63.94;100477.03;5135631;27;20574;-60
2022/12/04 01:37:51;;;;;;;15.93;10.07;;;;;;;6.47;63.99;100473.09;5140442;27;20212;-61
2022/12/04 01:40:20;;;;;;;14.23;8.27;;;;;;;6.47;63.85;100478.34;5136544;27;20888;-60
2022/12/04 01:42:51;;;;;;;15.53;9.43;;;;;;;6.46;64.03;100488.06;5141268;27;20761;-60
2022/12/04 01:45:48;;;;;;;15.43;8.87;;;;;;;6.49;64.05;100482.56;5141785;27;20205;-60
2022/12/04 01:48:22;;;;;;;14.97;9.00;;;;;;;6.57;63.82;100484.56;5101969;27;20201;-61
2022/12/04 01:50:54;;;;;;;14.73;8.27;;;;;;;6.59;63.42;100482.66;5144954;27;20228;-61
2022/12/04 01:53:22;;;;;;;14.27;8.50;;;;;;;6.57;63.76;100488.03;5141704;27;20206;-60
2022/12/04 01:55:51;;;;;;;16.20;9.73;;;;;;;6.52;63.92;100486.72;5139015;27;20225;-60
2022/12/04 01:58:23;;;;;;;15.10;9.13;;;;;;;6.49;63.66;100492.25;5145492;27;20568;-60
2022/12/04 02:00:55;;;;;;;17.10;9.50;;;;;;;6.49;63.45;100479.09;5134639;27;20202;-61
2022/12/04 02:03:25;;;;;;;15.50;9.00;;;;;;;6.50;63.80;100467.59;5141878;27;20195;-60
2022/12/04 02:05:53;;;;;;;15.37;9.30;;;;;;;6.52;63.86;100481.44;5145741;27;20292;-61
2022/12/04 02:08:21;;;;;;;15.73;9.23;;;;;;;6.59;63.88;100482.66;5140690;27;20295;-62
2022/12/04 02:11:03;;;;;;;15.70;9.20;;;;;;;6.62;63.62;100482.41;5138509;27;20241;-61
2022/12/04 02:13:36;;;;;;;17.47;9.73;;;;;;;6.57;63.32;100484.56;5139657;27;20205;-60
2022/12/04 02:16:13;;;;;;;16.97;10.03;;;;;;;6.59;63.22;100474.75;5149454;27;20228;-61
2022/12/04 02:18:51;;;;;;;15.07;9.30;;;;;;;6.48;63.10;100485.31;5134684;27;20257;-61
2022/12/04 02:21:23;;;;;;;16.07;9.37;;;;;;;6.51;63.35;100495.59;5134540;27;20217;-61
2022/12/04 02:24:12;;;;;;;17.40;9.73;;;;;;;6.50;63.51;100480.75;5140286;27;20849;-61
2022/12/04 02:26:49;;;;;;;14.73;9.00;;;;;;;6.45;63.94;100485.53;5145035;27;20205;-60
2022/12/04 02:29:28;;;;;;;16.03;9.63;;;;;;;6.47;63.64;100488.91;5139293;27;20232;-60
2022/12/04 02:32:03;;;;;;;16.10;8.80;;;;;;;6.42;63.73;100486.59;5136118;27;20348;-60
2022/12/04 02:34:40;;;;;;;16.63;9.47;;;;;;;6.39;63.72;100482.44;5140009;27;20231;-59
2022/12/04 02:37:14;;;;;;;18.17;10.80;;;;;;;6.36;64.38;100484.47;5137486;27;20589;-59
2022/12/04 02:39:46;;;;;;;18.20;9.90;;;;;;;6.47;64.39;100481.00;5136971;27;20209;-60
2022/12/04 02:42:19;;;;;;;17.03;9.67;;;;;;;6.51;64.12;100471.91;5138972;27;20215;-60
2022/12/04 02:44:53;;;;;;;17.37;10.27;;;;;;;6.41;64.32;100480.53;5137257;27;20200;-61
2022/12/04 02:47:23;;;;;;;18.87;10.03;;;;;;;6.50;64.45;100483.38;5135179;27;20653;-60
2022/12/04 02:49:55;;;;;;;14.37;8.47;;;;;;;6.58;64.40;100475.72;5133156;27;20197;-60
2022/12/04 02:52:31;;;;;;;16.80;9.53;;;;;;;6.54;63.95;100487.44;5132855;27;20223;-60
2022/12/04 02:55:03;;;;;;;17.83;9.87;;;;;;;6.41;63.95;100484.97;5137908;27;20222;-61
2022/12/04 02:57:40;;;;;;;15.43;8.93;;;;;;;6.40;64.28;100481.47;5135048;27;20217;-60
2022/12/04 03:00:11;;;;;;;15.30;8.53;;;;;;;6.46;64.18;100482.78;5136786;27;20201;-59
2022/12/04 03:02:44;;;;;;;15.63;9.37;;;;;;;6.53;63.88;100480.50;5135633;27;20198;-63
2022/12/04 03:05:15;;;;;;;18.90;10.13;;;;;;;6.43;63.73;100473.31;5133993;27;20205;-59
2022/12/04 03:07:46;;;;;;;17.00;9.73;;;;;;;6.45;63.82;100475.00;5131490;27;20204;-61
2022/12/04 03:10:18;;;;;;;17.07;10.17;;;;;;;6.42;63.70;100465.53;5130801;27;20233;-60
2022/12/04 03:12:50;;;;;;;16.70;9.00;;;;;;;6.50;63.73;100460.53;5137928;27;20603;-60
2022/12/04 03:15:26;;;;;;;17.13;9.17;;;;;;;6.60;63.75;100444.78;5147558;27;20200;-61
2022/12/04 03:18:00;;;;;;;15.40;8.63;;;;;;;6.57;63.35;100439.78;5141489;27;20200;-61
2022/12/04 03:20:30;;;;;;;14.93;9.13;;;;;;;6.48;63.57;100440.53;5144169;27;20209;-61
2022/12/04 03:23:08;;;;;;;13.83;8.00;;;;;;;6.43;63.17;100441.72;5139962;27;20208;-60
2022/12/04 03:25:43;;;;;;;13.97;8.43;;;;;;;6.36;63.83;100445.78;5143885;27;20213;-60
2022/12/04 03:28:20;;;;;;;13.80;8.57;;;;;;;6.40;63.65;100435.88;5139449;27;20239;-61
2022/12/04 03:30:58;;;;;;;14.80;9.00;;;;;;;6.39;63.79;100440.31;5136096;27;20205;-60
2022/12/04 03:33:32;;;;;;;17.17;9.13;;;;;;;6.43;63.84;100446.97;5131277;27;20627;-61
2022/12/04 03:36:04;;;;;;;16.33;9.60;;;;;;;6.39;63.66;100445.56;5136679;27;20940;-59
2022/12/04 03:38:39;;;;;;;16.73;10.00;;;;;;;6.32;64.22;100454.91;5135947;27;20680;-59
2022/12/04 03:41:13;;;;;;;15.63;9.70;;;;;;;6.28;64.53;100461.38;5136738;27;20672;-61
2022/12/04 03:43:50;;;;;;;21.27;10.27;;;;;;;6.26;64.63;100454.53;5139030;27;20209;-61
2022/12/04 03:46:27;;;;;;;16.37;9.20;;;;;;;6.34;64.79;100452.13;5135618;27;21917;-60
2022/12/04 03:49:02;;;;;;;16.60;8.97;;;;;;;6.49;64.41;100444.84;5139165;27;20316;-62
2022/12/04 03:51:34;;;;;;;17.00;9.80;;;;;;;6.56;64.05;100451.28;5145792;27;20705;-61
2022/12/04 03:54:06;;;;;;;17.43;10.00;;;;;;;6.56;63.95;100440.75;5138043;27;21112;-60
2022/12/04 03:56:39;;;;;;;16.17;10.00;;;;;;;6.47;64.23;100430.94;5135753;27;21323;-61
2022/12/04 03:59:12;;;;;;;16.63;9.60;;;;;;;6.55;64.21;100439.06;5139731;27;20225;-60
2022/12/04 04:01:44;;;;;;;17.73;10.27;;;;;;;6.61;64.18;100446.47;5136283;27;20708;-60
2022/12/04 04:04:18;;;;;;;18.73;10.07;;;;;;;6.63;64.07;100447.19;5138864;27;20204;-59
2022/12/04 04:06:53;;;;;;;18.83;9.57;;;;;;;6.58;64.09;100444.09;5139185;27;20194;-60
2022/12/04 04:09:24;;;;;;;18.43;10.47;;;;;;;6.55;64.34;100439.91;5136273;27;20650;-61
2022/12/04 04:11:57;;;;;;;17.57;9.70;;;;;;;6.67;63.88;100438.09;5136928;27;20247;-60
2022/12/04 04:25:52;;;;;;;18.60;9.87;;;;;;;6.66;63.54;100431.13;5141661;27;20216;-60
2022/12/04 04:28:29;;;;;;;16.57;9.10;;;;;;;6.60;63.31;100432.44;5143353;27;20233;-60
2022/12/04 04:31:05;;;;;;;18.10;9.33;;;;;;;6.52;63.59;100423.50;5142138;27;20205;-59
2022/12/04 04:33:45;;;;;;;15.30;8.90;;;;;;;6.47;63.84;100430.94;5138747;27;20216;-60
2022/12/04 04:36:21;;;;;;;15.20;9.13;;;;;;;6.41;64.34;100425.22;5136918;27;20210;-59
2022/12/04 04:38:59;;;;;;;16.10;9.13;;;;;;;6.36;64.09;100424.72;5141472;27;20679;-61
2022/12/04 04:41:35;;;;;;;17.67;9.27;;;;;;;6.28;64.51;100424.50;5136549;27;20202;-61
2022/12/04 04:44:11;;;;;;;16.87;9.60;;;;;;;6.23;64.57;100429.31;5142547;27;20208;-60
2022/12/04 04:46:45;;;;;;;17.53;9.43;;;;;;;6.29;64.90;100428.81;5139888;27;20193;-60
2022/12/04 04:49:16;;;;;;;15.23;8.77;;;;;;;6.26;64.59;100426.41;5142647;27;20645;-60
2022/12/04 04:51:45;;;;;;;17.60;9.33;;;;;;;6.28;64.81;100423.66;5138774;27;20202;-60
2022/12/04 04:54:15;;;;;;;17.33;9.23;;;;;;;6.38;64.79;100430.72;5141598;27;20220;-60
2022/12/04 04:56:46;;;;;;;16.80;9.80;;;;;;;6.48;64.36;100422.09;5137163;27;20748;-61
2022/12/04 04:59:15;;;;;;;20.50;10.73;;;;;;;6.41;64.42;100416.47;5139216;27;20212;-61
2022/12/04 05:01:45;;;;;;;18.40;10.20;;;;;;;6.45;64.54;100419.69;5140395;27;20203;-62
2022/12/04 05:04:14;;;;;;;16.77;9.43;;;;;;;6.36;64.94;100419.47;5135150;27;20205;-60
2022/12/04 05:06:42;;;;;;;16.03;9.17;;;;;;;6.29;65.06;100418.28;5141166;27;20208;-60
2022/12/04 05:09:12;;;;;;;18.27;8.80;;;;;;;6.28;65.30;100427.13;5135720;27;20300;-60
2022/12/04 05:11:40;;;;;;;17.00;9.80;;;;;;;6.39;65.12;100428.91;5140118;27;20222;-61
2022/12/04 05:14:09;;;;;;;17.67;9.43;;;;;;;6.56;64.69;100438.09;5137708;27;20741;-61
2022/12/04 05:16:41;;;;;;;17.93;9.90;;;;;;;6.60;64.10;100443.00;5138091;27;20212;-60
2022/12/04 05:21:56;;;;;;;17.63;9.87;;;;;;;6.53;64.51;100440.97;5140555;27;20198;-60
2022/12/04 05:24:24;;;;;;;18.87;9.80;;;;;;;6.46;64.76;100443.28;5144241;27;20209;-62
2022/12/04 05:26:51;;;;;;;18.67;9.37;;;;;;;6.53;65.03;100446.25;5139165;27;20217;-60
2022/12/04 05:29:19;;;;;;;17.83;10.07;;;;;;;6.55;64.92;100436.44;5139821;27;20260;-61
2022/12/04 05:31:47;;;;;;;19.57;10.03;;;;;;;6.57;64.60;100438.00;5138893;27;20201;-61
2022/12/04 05:34:15;;;;;;;16.97;9.30;;;;;;;6.68;64.21;100429.22;5137679;27;20237;-58
2022/12/04 05:36:42;;;;;;;20.30;10.37;;;;;;;6.56;64.33;100440.75;5141818;27;20200;-61
2022/12/04 05:39:11;;;;;;;19.73;10.50;;;;;;;6.47;65.11;100447.59;5142286;27;20211;-61
2022/12/04 05:41:39;;;;;;;17.67;9.87;;;;;;;6.56;65.16;100432.84;5138884;27;20226;-61
2022/12/04 05:44:07;;;;;;;17.80;9.30;;;;;;;6.54;64.91;100432.13;5138570;27;20207;-60
2022/12/04 05:46:34;;;;;;;21.37;10.20;;;;;;;6.55;65.05;100433.78;5134959;27;20197;-61
2022/12/04 05:49:02;;;;;;;17.27;10.10;;;;;;;6.51;64.91;100435.03;5142816;27;20209;-60
2022/12/04 05:51:30;;;;;;;17.73;8.97;;;;;;;6.33;65.69;100432.88;5141603;27;20220;-60
2022/12/04 05:53:58;;;;;;;18.23;9.47;;;;;;;6.34;66.18;100429.28;5140125;27;20277;-61
2022/12/04 05:56:27;;;;;;;17.97;9.53;;;;;;;6.33;66.09;100438.13;5141931;27;20211;-61
2022/12/04 05:58:54;;;;;;;16.83;9.53;;;;;;;6.43;65.80;100436.44;5130986;27;20229;-63
2022/12/04 06:01:24;;;;;;;19.20;10.40;;;;;;;6.52;65.84;100436.66;5131394;27;20572;-62
2022/12/04 06:03:51;;;;;;;19.27;9.93;;;;;;;6.53;65.95;100438.34;5128149;27;20212;-61
2022/12/04 06:06:22;;;;;;;18.13;9.50;;;;;;;6.49;66.22;100434.28;5131569;27;20214;-61
2022/12/04 06:08:53;;;;;;;17.77;8.93;;;;;;;6.54;65.67;100442.66;5139170;27;20197;-60
2022/12/04 06:11:23;;;;;;;16.13;9.27;;;;;;;6.56;65.18;100438.09;5137705;27;20231;-60
2022/12/04 06:13:53;;;;;;;17.87;8.80;;;;;;;6.58;65.27;100446.72;5136612;27;20211;-61
2022/12/04 06:16:23;;;;;;;18.00;9.03;;;;;;;6.51;65.28;100445.56;5132626;27;20213;-59
2022/12/04 06:18:52;;;;;;;15.47;7.90;;;;;;;6.50;65.40;100446.50;5136980;27;20231;-61
2022/12/04 06:21:24;;;;;;;15.70;8.23;;;;;;;6.46;65.59;100447.69;5134169;27;20205;-61
2022/12/04 06:23:52;;;;;;;15.37;8.50;;;;;;;6.44;65.77;100458.34;5137904;27;20246;-61
2022/12/04 06:26:21;;;;;;;14.67;8.07;;;;;;;6.50;65.54;100457.06;5137268;27;20208;-62
2022/12/04 06:28:49;;;;;;;16.43;8.20;;;;;;;6.54;65.21;100450.56;5137210;27;20233;-61
2022/12/04 06:31:18;;;;;;;13.50;7.83;;;;;;;6.56;65.57;100449.50;5140695;27;20738;-59
2022/12/04 06:33:46;;;;;;;15.70;8.70;;;;;;;6.62;65.42;100445.50;5138790;27;20662;-60
2022/12/04 06:36:17;;;;;;;16.20;9.43;;;;;;;6.67;65.44;100446.00;5144028;27;20210;-60
2022/12/04 06:38:45;;;;;;;15.00;8.47;;;;;;;6.70;65.42;100440.47;5136367;27;20224;-60
2022/12/04 06:41:15;;;;;;;14.60;7.80;;;;;;;6.65;65.08;100437.38;5139627;27;20216;-60
2022/12/04 06:43:42;;;;;;;16.27;8.47;;;;;;;6.68;65.37;100442.41;5135543;27;20211;-61
2022/12/04 06:46:12;;;;;;;13.20;7.70;;;;;;;6.66;64.77;100431.97;5140604;27;20220;-61
2022/12/04 06:48:42;;;;;;;12.17;7.50;;;;;;;6.63;65.11;100439.28;5138177;27;20213;-59
2022/12/04 06:51:12;;;;;;;16.20;7.53;;;;;;;6.58;65.20;100441.47;5137883;27;20205;-60
2022/12/04 06:53:40;;;;;;;17.03;8.00;;;;;;;6.49;65.41;100436.94;5140920;27;20210;-60
2022/12/04 06:56:10;;;;;;;12.93;7.40;;;;;;;6.46;65.45;100439.81;5138818;27;20206;-59
2022/12/04 06:58:38;;;;;;;14.33;7.30;;;;;;;6.40;65.70;100441.97;5134069;27;20255;-60
2022/12/04 07:01:07;;;;;;;16.13;8.50;;;;;;;6.33;66.40;100432.88;5141695;27;20289;-60
2022/12/04 07:03:35;;;;;;;16.97;8.80;;;;;;;6.48;66.28;100435.25;5137687;27;20218;-59
2022/12/04 07:06:16;;;;;;;16.70;7.87;;;;;;;6.52;66.55;100444.56;5137037;27;20228;-61
2022/12/04 07:08:45;;;;;;;21.43;9.33;;;;;;;6.47;66.68;100436.22;5135699;27;20197;-61
2022/12/04 07:11:14;;;;;;;14.33;8.87;;;;;;;6.50;66.84;100435.97;5133959;27;20236;-61
2022/12/04 07:13:42;;;;;;;14.83;8.27;;;;;;;6.57;66.64;100437.16;5139288;27;20210;-61
2022/12/04 07:16:13;;;;;;;13.57;7.97;;;;;;;6.59;66.62;100436.06;5135560;27;20701;-60
2022/12/04 07:18:41;;;;;;;15.60;8.83;;;;;;;6.58;66.26;100439.66;5140439;27;20270;-60
2022/12/04 07:21:10;;;;;;;16.20;8.80;;;;;;;6.60;66.35;100436.88;5142222;27;20197;-60
2022/12/04 07:23:39;;;;;;;16.80;9.23;;;;;;;6.53;66.27;100436.53;5139187;27;20212;-60
2022/12/04 07:26:11;;;;;;;18.00;8.60;;;;;;;6.50;66.80;100435.97;5137237;27;20208;-60
2022/12/04 07:28:40;;;;;;;17.60;9.13;;;;;;;6.50;66.82;100431.53;5150535;27;20529;-61
2022/12/04 07:31:10;;;;;;;15.83;8.43;;;;;;;6.51;66.76;100440.28;5141446;27;20274;-60
2022/12/04 07:33:38;;;;;;;19.17;9.83;;;;;;;6.55;66.72;100439.91;5138958;27;20201;-60
2022/12/04 07:36:09;;;;;;;14.50;8.23;;;;;;;6.51;67.23;100443.72;5143234;27;20220;-61
2022/12/04 07:38:37;;;;;;;15.30;8.37;;;;;;;6.47;66.97;100436.22;5136764;27;20225;-62
2022/12/04 07:41:07;;;;;;;16.30;8.93;;;;;;;6.50;67.38;100441.25;5146760;27;20209;-61
2022/12/04 07:43:35;;;;;;;18.88;10.75;;;;;;;6.59;67.17;100443.97;5137284;27;20931;-65
2022/12/04 07:46:05;;;;;;;18.60;9.40;;;;;;;6.70;66.71;100443.94;5142434;27;20455;-64
2022/12/04 07:48:33;;;;;;;20.30;9.37;;;;;;;6.70;66.38;100445.72;5142450;27;20912;-63
2022/12/04 07:51:05;;;;;;;17.00;8.77;;;;;;;6.57;66.40;100451.16;5139918;27;21856;-64
2022/12/04 07:53:34;;;;;;;16.23;9.17;;;;;;;6.48;67.16;100453.69;5144218;27;20217;-64
2022/12/04 07:56:03;;;;;;;16.03;8.90;;;;;;;6.50;67.36;100451.78;5136861;27;20211;-64
2022/12/04 07:58:33;;;;;;;17.13;9.37;;;;;;;6.55;67.59;100457.50;5134010;27;20214;-64
2022/12/04 08:01:08;;;;;;;18.87;9.70;;;;;;;6.60;67.28;100458.81;5140605;27;21996;-64
2022/12/04 08:03:36;;;;;;;21.40;10.67;;;;;;;6.59;66.72;100456.31;5138531;27;20669;-66
2022/12/04 08:06:12;;;;;;;23.40;11.30;;;;;;;6.61;67.13;100451.75;5138191;27;20208;-65
2022/12/04 08:08:40;;;;;;;22.60;10.53;;;;;;;6.63;66.70;100444.56;5132515;27;20206;-64
2022/12/04 08:11:09;;;;;;;23.63;10.37;;;;;;;6.63;66.51;100444.56;5144078;27;20669;-64
2022/12/04 08:13:38;;;;;;;20.03;9.77;;;;;;;6.58;66.72;100441.47;5140453;27;20212;-64
2022/12/04 08:16:08;;;;;;;21.10;10.27;;;;;;;6.47;67.40;100452.84;5144369;27;20226;-65
2022/12/04 08:18:36;;;;;;;25.03;10.90;;;;;;;6.50;67.05;100450.00;5139693;27;20221;-65
2022/12/04 08:21:05;;;;;;;22.07;10.70;;;;;;;6.52;66.86;100449.84;5142394;27;20205;-64
2022/12/04 08:23:33;;;;;;;26.13;11.47;;;;;;;6.52;67.07;100439.31;5141910;27;20206;-63
2022/12/04 08:26:02;;;;;;;22.00;11.07;;;;;;;6.53;67.12;100446.25;5143398;27;20268;-63
2022/12/04 08:28:31;;;;;;;21.67;10.03;;;;;;;6.47;67.33;100438.84;5141968;27;20233;-64
2022/12/04 08:31:04;;;;;;;24.33;11.20;;;;;;;6.47;67.69;100446.75;5141717;27;20729;-64
2022/12/04 08:33:34;;;;;;;22.23;10.43;;;;;;;6.56;67.42;100446.84;5144465;27;20228;-65
2022/12/04 08:36:02;;;;;;;27.50;11.97;;;;;;;6.52;67.23;100447.19;5144588;27;20202;-62
2022/12/04 08:38:30;;;;;;;23.07;10.73;;;;;;;6.53;67.37;100440.97;5138082;27;20251;-64
2022/12/04 08:40:59;;;;;;;21.30;9.73;;;;;;;6.57;67.27;100445.06;5152227;27;20197;-64
2022/12/04 08:43:27;;;;;;;25.47;11.33;;;;;;;6.53;67.65;100441.81;5143314;27;20798;-63
2022/12/04 08:45:56;;;;;;;26.50;11.33;;;;;;;6.52;67.37;100441.94;5143923;27;20205;-64
2022/12/04 08:48:26;;;;;;;23.00;11.53;;;;;;;6.51;67.31;100437.66;5139980;27;20300;-64
2022/12/04 08:50:55;;;;;;;26.40;10.80;;;;;;;6.53;67.08;100440.97;5142011;27;20256;-63
2022/12/04 08:53:23;;;;;;;23.07;11.10;;;;;;;6.38;67.42;100443.06;5147177;27;20206;-63
2022/12/04 08:55:51;;;;;;;23.20;10.80;;;;;;;6.43;67.26;100451.41;5137494;27;20248;-63
2022/12/04 08:58:19;;;;;;;26.70;11.60;;;;;;;6.50;67.10;100454.41;5144538;27;20209;-63
2022/12/04 09:00:47;;;;;;;24.83;11.87;;;;;;;6.60;67.08;100455.31;5141855;27;20597;-63
2022/12/04 09:03:17;;;;;;;22.43;11.13;;;;;;;6.53;67.05;100444.44;5148356;27;20290;-63
2022/12/04 09:05:46;;;;;;;25.50;11.40;;;;;;;6.49;67.28;100445.69;5146814;27;20204;-63
2022/12/04 09:08:15;;;;;;;21.87;10.00;;;;;;;6.48;67.36;100453.69;5136120;27;20210;-65
2022/12/04 09:10:44;;;;;;;22.90;10.93;;;;;;;6.53;67.55;100449.72;5148082;27;20588;-64
2022/12/04 09:13:12;;;;;;;26.13;10.93;;;;;;;6.56;67.38;100454.75;5146661;27;20235;-63
2022/12/04 09:15:40;;;;;;;23.93;11.83;;;;;;;6.59;67.24;100448.41;5138857;27;20213;-63
2022/12/04 09:18:09;;;;;;;25.10;11.47;;;;;;;6.50;67.30;100439.44;5138371;27;20236;-64
2022/12/04 09:20:37;;;;;;;23.73;11.57;;;;;;;6.53;67.31;100446.25;5140860;27;20289;-63
2022/12/04 09:23:06;;;;;;;25.47;12.20;;;;;;;6.54;67.22;100454.03;5139686;27;20212;-63
2022/12/04 09:25:36;;;;;;;22.80;11.13;;;;;;;6.50;67.50;100451.78;5143590;27;20205;-64
2022/12/04 09:28:04;;;;;;;23.50;11.77;;;;;;;6.41;67.72;100446.28;5145372;27;20233;-63
2022/12/04 09:30:32;;;;;;;21.93;11.63;;;;;;;6.42;67.63;100439.19;5140552;27;20213;-64
2022/12/04 09:33:06;;;;;;;26.33;11.13;;;;;;;6.39;67.58;100440.31;5136455;27;20204;-63
2022/12/04 09:35:34;;;;;;;25.27;11.80;;;;;;;6.45;67.34;100446.03;5145034;27;20209;-63
2022/12/04 09:38:02;;;;;;;23.87;11.50;;;;;;;6.34;67.43;100455.59;5143378;27;20284;-63
2022/12/04 09:40:41;;;;;;;21.17;11.47;;;;;;;6.40;67.60;100449.88;5139352;27;20365;-64
2022/12/04 09:43:19;;;;;;;24.07;10.87;;;;;;;6.37;67.69;100455.38;5146979;27;20192;-63
2022/12/04 09:45:52;;;;;;;26.93;11.33;;;;;;;6.32;67.78;100451.44;5148038;27;20225;-65
2022/12/04 09:48:22;;;;;;;25.93;11.97;;;;;;;6.26;68.24;100446.63;5142678;27;20262;-64
2022/12/04 09:50:51;;;;;;;22.93;11.67;;;;;;;6.43;68.00;100446.97;5138906;27;20638;-64
2022/12/04 09:53:22;;;;;;;18.87;10.47;;;;;;;6.53;67.40;100446.25;5141617;27;20208;-63
2022/12/04 09:55:56;;;;;;;22.27;11.20;;;;;;;6.43;67.27;100449.63;5142505;27;20213;-63
2022/12/04 09:58:28;;;;;;;22.00;10.13;;;;;;;6.45;67.79;100456.56;5142671;27;20228;-64
2022/12/04 10:00:58;;;;;;;23.87;11.67;;;;;;;6.39;67.83;100445.56;5143202;27;20229;-64
2022/12/04 10:03:30;;;;;;;24.80;12.07;;;;;;;6.45;67.67;100448.66;5139501;27;20220;-64
2022/12/04 10:06:08;;;;;;;23.87;11.93;;;;;;;6.53;66.95;100436.53;5142201;27;20202;-64
2022/12/04 10:08:39;;;;;;;22.37;11.40;;;;;;;6.50;67.40;100434.19;5138981;27;20215;-63
2022/12/04 10:11:15;;;;;;;24.23;12.50;;;;;;;6.42;67.56;100433.94;5140421;27;20220;-63
2022/12/04 10:14:10;;;;;;;20.90;11.07;;;;;;;6.49;67.40;100426.41;5144739;27;20200;-64
2022/12/04 10:16:52;;;;;;;24.87;11.03;;;;;;;6.48;67.54;100427.34;5137546;27;20642;-63
2022/12/04 10:19:30;;;;;;;20.83;10.87;;;;;;;6.42;67.74;100418.97;5141244;27;20228;-64
2022/12/04 10:22:08;;;;;;;27.60;10.93;;;;;;;6.55;67.40;100424.09;5144775;27;20219;-64
2022/12/04 10:24:41;;;;;;;26.13;12.43;;;;;;;6.47;67.12;100423.88;5144221;27;20205;-65
2022/12/04 10:27:14;;;;;;;21.77;11.17;;;;;;;6.47;67.53;100415.13;5134824;27;20197;-63
2022/12/04 10:29:52;;;;;;;22.40;10.87;;;;;;;6.53;67.31;100419.91;5141285;27;20206;-64
2022/12/04 10:32:34;;;;;;;22.13;11.47;;;;;;;6.50;66.94;100425.44;5134939;27;20216;-64
2022/12/04 10:35:22;;;;;;;27.57;10.77;;;;;;;6.45;67.37;100417.06;5137478;28;20208;-63
2022/12/04 10:38:00;;;;;;;22.87;11.33;;;;;;;6.41;67.82;100404.16;5131653;28;20244;-65
2022/12/04 10:40:49;;;;;;;22.63;10.23;;;;;;;6.39;68.04;100397.31;5134739;28;20312;-64
2022/12/04 10:43:41;;;;;;;22.33;10.90;;;;;;;6.34;68.22;100397.66;5136816;28;20213;-65
2022/12/04 10:46:19;;;;;;;21.20;10.47;;;;;;;6.38;68.41;100393.00;5133846;28;20206;-66
2022/12/04 10:48:52;;;;;;;21.27;10.40;;;;;;;6.43;68.27;100386.41;5139591;28;20201;-65
2022/12/04 10:51:21;;;;;;;19.20;10.03;;;;;;;6.52;67.90;100384.81;5132150;28;20225;-64
2022/12/04 10:53:52;;;;;;;22.77;10.80;;;;;;;6.61;67.25;100381.44;5142821;28;20209;-67
2022/12/04 10:56:32;;;;;;;24.73;11.63;;;;;;;6.58;67.26;100380.88;5138368;28;20237;-66
2022/12/04 10:59:16;;;;;;;24.07;11.07;;;;;;;6.60;67.60;100376.28;5136690;28;20213;-65
2022/12/04 11:01:50;;;;;;;24.20;10.60;;;;;;;6.62;67.22;100383.13;5124908;28;20209;-65
2022/12/04 11:04:28;;;;;;;24.17;11.77;;;;;;;6.65;67.32;100382.03;5123493;28;20210;-66
2022/12/04 11:07:03;;;;;;;20.07;10.23;;;;;;;6.67;67.25;100377.47;5130782;28;20215;-65
2022/12/04 11:09:33;;;;;;;21.47;10.83;;;;;;;6.64;67.13;100369.81;5126714;28;20310;-65
2022/12/04 11:12:07;;;;;;;23.37;10.47;;;;;;;6.67;67.03;100369.59;5130332;28;20233;-65
2022/12/04 11:14:37;;;;;;;26.13;11.07;;;;;;;6.66;67.07;100370.53;5135796;28;20217;-66
2022/12/04 11:17:21;;;;;;;22.93;11.10;;;;;;;6.65;67.25;100371.50;5127400;28;20202;-65
2022/12/04 11:19:59;;;;;;;21.40;11.13;;;;;;;6.72;67.20;100375.28;5128079;28;20244;-66
2022/12/04 11:22:27;;;;;;;25.13;10.63;;;;;;;6.73;67.00;100371.69;5128316;28;20237;-65
2022/12/04 11:25:08;;;;;;;23.30;10.93;;;;;;;6.72;67.18;100365.59;5134617;28;20205;-67
2022/12/04 11:27:39;;;;;;;23.17;11.90;;;;;;;6.72;67.16;100368.22;5137557;27;20238;-65
2022/12/04 11:30:16;;;;;;;24.10;11.83;;;;;;;6.78;67.28;100366.88;5130078;28;20231;-65
2022/12/04 11:32:46;;;;;;;25.93;12.83;;;;;;;6.83;67.00;100370.00;5133231;27;20209;-66
2022/12/04 11:35:17;;;;;;;23.60;12.37;;;;;;;6.82;67.17;100370.09;5135364;27;20311;-65
2022/12/04 11:37:56;;;;;;;25.43;12.13;;;;;;;6.76;67.31;100380.22;5142231;27;20205;-65
2022/12/04 11:40:30;;;;;;;27.63;12.00;;;;;;;6.78;67.55;100373.00;5142603;27;20281;-65
2022/12/04 11:43:07;;;;;;;23.80;12.13;;;;;;;6.69;67.55;100378.16;5143488;27;20207;-65
2022/12/04 11:45:53;;;;;;;28.53;12.47;;;;;;;6.69;67.94;100371.09;5143779;27;20361;-65
2022/12/04 11:48:24;;;;;;;23.37;11.77;;;;;;;6.75;67.60;100382.97;5137720;27;20438;-65
2022/12/04 11:51:09;;;;;;;26.43;11.33;;;;;;;6.84;67.02;100387.47;5139614;27;20203;-64
2022/12/04 11:53:53;;;;;;;23.93;11.87;;;;;;;6.74;67.45;100379.50;5138732;27;20259;-63
2022/12/04 11:56:28;;;;;;;24.60;12.77;;;;;;;6.70;67.89;100387.75;5136478;27;20201;-65